sensor_id;sensor_type;location;lat;lon;timestamp;P1;durP1;ratioP1;P2;durP2;ratioP2
28772;SDS011;15925;51.222;5.678;2023-05-10T00:00:53;9.00;;;4.73;;
28772;SDS011;15925;51.222;5.678;2023-05-10T00:03:19;8.90;;;4.30;;
28772;SDS011;15925;51.222;5.678;2023-05-10T00:05:45;11.10;;;5.07;;
28772;SDS011;15925;51.222;5.678;2023-05-10T00:08:11;10.73;;;4.30;;
28772;SDS011;15925;51.222;5.678;2023-05-10T00:10:37;11.45;;;5.43;;
28772;SDS011;15925;51.222;5.678;2023-05-10T00:13:03;11.55;;;5.40;;
28772;SDS011;15925;51.222;5.678;2023-05-10T00:15:29;11.03;;;4.63;;
28772;SDS011;15925;51.222;5.678;2023-05-10T00:20:21;18.25;;;7.05;;
28772;SDS011;15925;51.222;5.678;2023-05-10T00:22:47;12.43;;;5.53;;
28772;SDS011;15925;51.222;5.678;2023-05-10T00:25:13;12.73;;;5.20;;
28772;SDS011;15925;51.222;5.678;2023-05-10T00:27:38;13.30;;;5.50;;
28772;SDS011;15925;51.222;5.678;2023-05-10T00:30:04;15.90;;;6.93;;
28772;SDS011;15925;51.222;5.678;2023-05-10T00:34:57;15.20;;;6.35;;
28772;SDS011;15925;51.222;5.678;2023-05-10T00:37:23;11.97;;;6.00;;
28772;SDS011;15925;51.222;5.678;2023-05-10T00:39:49;15.30;;;5.47;;
28772;SDS011;15925;51.222;5.678;2023-05-10T00:42:15;13.52;;;6.88;;
28772;SDS011;15925;51.222;5.678;2023-05-10T00:44:41;14.10;;;6.70;;
28772;SDS011;15925;51.222;5.678;2023-05-10T00:47:06;14.97;;;7.40;;
28772;SDS011;15925;51.222;5.678;2023-05-10T00:49:34;15.30;;;6.82;;
28772;SDS011;15925;51.222;5.678;2023-05-10T00:54:27;14.23;;;5.25;;
28772;SDS011;15925;51.222;5.678;2023-05-10T00:56:53;16.45;;;6.30;;
28772;SDS011;15925;51.222;5.678;2023-05-10T00:59:19;16.20;;;6.22;;
28772;SDS011;15925;51.222;5.678;2023-05-10T01:01:45;21.77;;;6.18;;
28772;SDS011;15925;51.222;5.678;2023-05-10T01:04:12;20.85;;;5.68;;
28772;SDS011;15925;51.222;5.678;2023-05-10T01:06:39;12.18;;;5.90;;
28772;SDS011;15925;51.222;5.678;2023-05-10T01:09:05;11.98;;;4.85;;
28772;SDS011;15925;51.222;5.678;2023-05-10T01:11:35;16.02;;;5.57;;
28772;SDS011;15925;51.222;5.678;2023-05-10T01:14:03;14.70;;;5.38;;
28772;SDS011;15925;51.222;5.678;2023-05-10T01:19:03;12.65;;;5.60;;
28772;SDS011;15925;51.222;5.678;2023-05-10T01:37:42;23.05;;;8.13;;
28772;SDS011;15925;51.222;5.678;2023-05-10T01:40:23;17.80;;;7.70;;
28772;SDS011;15925;51.222;5.678;2023-05-10T01:42:59;15.57;;;7.95;;
28772;SDS011;15925;51.222;5.678;2023-05-10T01:45:37;21.13;;;8.50;;
28772;SDS011;15925;51.222;5.678;2023-05-10T01:48:22;30.13;;;9.65;;
28772;SDS011;15925;51.222;5.678;2023-05-10T01:50:52;22.15;;;8.60;;
28772;SDS011;15925;51.222;5.678;2023-05-10T01:55:52;23.23;;;8.13;;
28772;SDS011;15925;51.222;5.678;2023-05-10T01:58:21;21.20;;;8.02;;
28772;SDS011;15925;51.222;5.678;2023-05-10T02:00:52;18.35;;;7.95;;
28772;SDS011;15925;51.222;5.678;2023-05-10T02:03:23;17.38;;;8.50;;
28772;SDS011;15925;51.222;5.678;2023-05-10T02:05:50;24.33;;;8.32;;
28772;SDS011;15925;51.222;5.678;2023-05-10T02:08:21;20.60;;;7.90;;
28772;SDS011;15925;51.222;5.678;2023-05-10T02:10:47;24.02;;;8.70;;
28772;SDS011;15925;51.222;5.678;2023-05-10T02:13:17;22.30;;;8.93;;
28772;SDS011;15925;51.222;5.678;2023-05-10T02:15:46;24.38;;;8.27;;
28772;SDS011;15925;51.222;5.678;2023-05-10T02:18:13;19.80;;;8.18;;
28772;SDS011;15925;51.222;5.678;2023-05-10T02:20:41;18.15;;;8.95;;
28772;SDS011;15925;51.222;5.678;2023-05-10T02:23:08;17.42;;;7.05;;
28772;SDS011;15925;51.222;5.678;2023-05-10T02:25:34;18.80;;;6.88;;
28772;SDS011;15925;51.222;5.678;2023-05-10T02:28:03;21.10;;;8.07;;
28772;SDS011;15925;51.222;5.678;2023-05-10T02:30:31;22.10;;;8.32;;
28772;SDS011;15925;51.222;5.678;2023-05-10T02:32:59;19.55;;;7.50;;
28772;SDS011;15925;51.222;5.678;2023-05-10T02:35:28;16.58;;;7.22;;
28772;SDS011;15925;51.222;5.678;2023-05-10T02:37:54;23.15;;;7.43;;
28772;SDS011;15925;51.222;5.678;2023-05-10T02:40:22;19.27;;;7.45;;
28772;SDS011;15925;51.222;5.678;2023-05-10T02:42:50;33.38;;;7.85;;
28772;SDS011;15925;51.222;5.678;2023-05-10T02:45:19;21.98;;;8.70;;
28772;SDS011;15925;51.222;5.678;2023-05-10T02:47:47;17.08;;;7.40;;
28772;SDS011;15925;51.222;5.678;2023-05-10T02:50:13;25.23;;;8.70;;
28772;SDS011;15925;51.222;5.678;2023-05-10T02:52:40;18.85;;;8.27;;
28772;SDS011;15925;51.222;5.678;2023-05-10T02:55:11;21.73;;;8.23;;
28772;SDS011;15925;51.222;5.678;2023-05-10T02:57:46;21.08;;;8.68;;
28772;SDS011;15925;51.222;5.678;2023-05-10T03:00:17;22.23;;;7.75;;
28772;SDS011;15925;51.222;5.678;2023-05-10T03:02:43;25.52;;;9.88;;
28772;SDS011;15925;51.222;5.678;2023-05-10T03:05:09;33.38;;;10.82;;
28772;SDS011;15925;51.222;5.678;2023-05-10T03:07:34;26.90;;;9.20;;
28772;SDS011;15925;51.222;5.678;2023-05-10T03:10:01;28.35;;;12.25;;
28772;SDS011;15925;51.222;5.678;2023-05-10T03:12:37;24.75;;;8.88;;
28772;SDS011;15925;51.222;5.678;2023-05-10T03:18:01;23.95;;;9.07;;
28772;SDS011;15925;51.222;5.678;2023-05-10T03:20:36;23.40;;;9.48;;
28772;SDS011;15925;51.222;5.678;2023-05-10T03:23:13;21.75;;;9.13;;
28772;SDS011;15925;51.222;5.678;2023-05-10T03:25:48;25.08;;;8.75;;
28772;SDS011;15925;51.222;5.678;2023-05-10T03:28:16;29.00;;;8.95;;
28772;SDS011;15925;51.222;5.678;2023-05-10T03:30:43;26.65;;;10.05;;
28772;SDS011;15925;51.222;5.678;2023-05-10T03:33:11;31.83;;;9.88;;
28772;SDS011;15925;51.222;5.678;2023-05-10T03:35:40;31.23;;;10.45;;
28772;SDS011;15925;51.222;5.678;2023-05-10T03:38:06;23.10;;;8.97;;
28772;SDS011;15925;51.222;5.678;2023-05-10T03:40:32;36.80;;;9.93;;
28772;SDS011;15925;51.222;5.678;2023-05-10T03:42:58;29.95;;;11.57;;
28772;SDS011;15925;51.222;5.678;2023-05-10T03:45:25;43.88;;;10.20;;
28772;SDS011;15925;51.222;5.678;2023-05-10T03:47:51;28.52;;;10.27;;
28772;SDS011;15925;51.222;5.678;2023-05-10T03:50:17;36.83;;;10.38;;
28772;SDS011;15925;51.222;5.678;2023-05-10T03:52:43;39.80;;;11.07;;
28772;SDS011;15925;51.222;5.678;2023-05-10T03:55:09;30.20;;;9.38;;
28772;SDS011;15925;51.222;5.678;2023-05-10T03:57:36;40.00;;;11.70;;
28772;SDS011;15925;51.222;5.678;2023-05-10T04:00:02;42.30;;;12.90;;
28772;SDS011;15925;51.222;5.678;2023-05-10T04:05:07;27.85;;;10.25;;
28772;SDS011;15925;51.222;5.678;2023-05-10T04:07:33;35.65;;;11.18;;
28772;SDS011;15925;51.222;5.678;2023-05-10T04:09:59;37.97;;;10.37;;
28772;SDS011;15925;51.222;5.678;2023-05-10T04:12:25;29.98;;;10.18;;
28772;SDS011;15925;51.222;5.678;2023-05-10T04:14:50;41.27;;;11.63;;
28772;SDS011;15925;51.222;5.678;2023-05-10T04:17:16;42.73;;;11.60;;
28772;SDS011;15925;51.222;5.678;2023-05-10T04:19:42;25.48;;;9.07;;
28772;SDS011;15925;51.222;5.678;2023-05-10T04:22:08;23.67;;;9.33;;
28772;SDS011;15925;51.222;5.678;2023-05-10T04:24:34;22.08;;;8.70;;
28772;SDS011;15925;51.222;5.678;2023-05-10T04:27:00;31.33;;;7.90;;
28772;SDS011;15925;51.222;5.678;2023-05-10T04:29:25;38.50;;;10.90;;
28772;SDS011;15925;51.222;5.678;2023-05-10T04:31:52;25.42;;;9.18;;
28772;SDS011;15925;51.222;5.678;2023-05-10T04:34:20;31.77;;;9.95;;
28772;SDS011;15925;51.222;5.678;2023-05-10T04:36:46;36.03;;;9.48;;
28772;SDS011;15925;51.222;5.678;2023-05-10T04:39:11;32.23;;;8.63;;
28772;SDS011;15925;51.222;5.678;2023-05-10T04:41:38;38.35;;;9.77;;
28772;SDS011;15925;51.222;5.678;2023-05-10T04:44:04;35.17;;;9.63;;
28772;SDS011;15925;51.222;5.678;2023-05-10T04:46:31;27.05;;;9.07;;
28772;SDS011;15925;51.222;5.678;2023-05-10T04:48:56;27.37;;;10.20;;
28772;SDS011;15925;51.222;5.678;2023-05-10T04:51:22;29.50;;;8.80;;
28772;SDS011;15925;51.222;5.678;2023-05-10T04:53:48;19.47;;;7.60;;
28772;SDS011;15925;51.222;5.678;2023-05-10T04:56:14;19.52;;;9.05;;
28772;SDS011;15925;51.222;5.678;2023-05-10T05:01:07;19.33;;;8.32;;
28772;SDS011;15925;51.222;5.678;2023-05-10T05:05:59;18.02;;;7.50;;
28772;SDS011;15925;51.222;5.678;2023-05-10T05:08:25;16.83;;;7.47;;
28772;SDS011;15925;51.222;5.678;2023-05-10T05:10:51;23.30;;;7.95;;
28772;SDS011;15925;51.222;5.678;2023-05-10T05:13:17;25.35;;;7.93;;
28772;SDS011;15925;51.222;5.678;2023-05-10T05:15:42;18.93;;;7.53;;
28772;SDS011;15925;51.222;5.678;2023-05-10T05:18:08;24.33;;;8.90;;
28772;SDS011;15925;51.222;5.678;2023-05-10T05:20:34;31.83;;;10.00;;
28772;SDS011;15925;51.222;5.678;2023-05-10T05:23:00;24.10;;;9.73;;
28772;SDS011;15925;51.222;5.678;2023-05-10T05:25:26;18.15;;;8.40;;
28772;SDS011;15925;51.222;5.678;2023-05-10T05:27:52;18.52;;;8.10;;
28772;SDS011;15925;51.222;5.678;2023-05-10T05:30:18;23.17;;;9.13;;
28772;SDS011;15925;51.222;5.678;2023-05-10T05:32:44;29.07;;;7.93;;
28772;SDS011;15925;51.222;5.678;2023-05-10T05:35:09;19.95;;;7.88;;
28772;SDS011;15925;51.222;5.678;2023-05-10T05:37:36;22.98;;;8.93;;
28772;SDS011;15925;51.222;5.678;2023-05-10T05:40:02;23.27;;;10.13;;
28772;SDS011;15925;51.222;5.678;2023-05-10T05:44:56;31.67;;;10.15;;
28772;SDS011;15925;51.222;5.678;2023-05-10T05:47:22;25.05;;;8.85;;
28772;SDS011;15925;51.222;5.678;2023-05-10T05:49:48;34.67;;;9.85;;
28772;SDS011;15925;51.222;5.678;2023-05-10T05:52:14;34.70;;;11.80;;
28772;SDS011;15925;51.222;5.678;2023-05-10T05:54:40;34.92;;;11.23;;
28772;SDS011;15925;51.222;5.678;2023-05-10T05:57:06;30.03;;;11.33;;
28772;SDS011;15925;51.222;5.678;2023-05-10T05:59:32;28.27;;;10.13;;
28772;SDS011;15925;51.222;5.678;2023-05-10T06:01:58;30.52;;;11.07;;
28772;SDS011;15925;51.222;5.678;2023-05-10T06:04:24;30.80;;;11.47;;
28772;SDS011;15925;51.222;5.678;2023-05-10T06:06:49;46.67;;;12.60;;
28772;SDS011;15925;51.222;5.678;2023-05-10T06:09:15;55.20;;;12.20;;
28772;SDS011;15925;51.222;5.678;2023-05-10T06:11:41;46.57;;;12.83;;
28772;SDS011;15925;51.222;5.678;2023-05-10T06:14:07;39.43;;;12.07;;
28772;SDS011;15925;51.222;5.678;2023-05-10T06:16:33;22.37;;;10.17;;
28772;SDS011;15925;51.222;5.678;2023-05-10T06:19:00;29.92;;;9.70;;
28772;SDS011;15925;51.222;5.678;2023-05-10T06:21:25;36.43;;;12.10;;
28772;SDS011;15925;51.222;5.678;2023-05-10T06:23:51;24.77;;;9.77;;
28772;SDS011;15925;51.222;5.678;2023-05-10T06:26:17;33.30;;;9.63;;
28772;SDS011;15925;51.222;5.678;2023-05-10T06:28:43;34.97;;;11.27;;
28772;SDS011;15925;51.222;5.678;2023-05-10T06:31:09;26.67;;;10.18;;
28772;SDS011;15925;51.222;5.678;2023-05-10T06:33:36;27.35;;;9.15;;
28772;SDS011;15925;51.222;5.678;2023-05-10T06:36:02;29.60;;;10.20;;
28772;SDS011;15925;51.222;5.678;2023-05-10T06:38:29;29.98;;;10.20;;
28772;SDS011;15925;51.222;5.678;2023-05-10T06:40:54;29.50;;;9.30;;
28772;SDS011;15925;51.222;5.678;2023-05-10T06:43:20;23.27;;;8.57;;
28772;SDS011;15925;51.222;5.678;2023-05-10T06:45:47;30.77;;;9.95;;
28772;SDS011;15925;51.222;5.678;2023-05-10T06:48:13;22.77;;;8.45;;
28772;SDS011;15925;51.222;5.678;2023-05-10T06:50:39;30.10;;;11.03;;
28772;SDS011;15925;51.222;5.678;2023-05-10T06:53:05;24.87;;;9.70;;
28772;SDS011;15925;51.222;5.678;2023-05-10T06:55:30;35.97;;;8.83;;
28772;SDS011;15925;51.222;5.678;2023-05-10T06:57:56;26.37;;;8.60;;
28772;SDS011;15925;51.222;5.678;2023-05-10T07:00:22;17.13;;;7.30;;
28772;SDS011;15925;51.222;5.678;2023-05-10T07:02:48;24.10;;;9.07;;
28772;SDS011;15925;51.222;5.678;2023-05-10T07:05:14;25.67;;;9.63;;
28772;SDS011;15925;51.222;5.678;2023-05-10T07:07:40;18.27;;;7.28;;
28772;SDS011;15925;51.222;5.678;2023-05-10T07:10:06;18.42;;;7.18;;
28772;SDS011;15925;51.222;5.678;2023-05-10T07:12:33;21.40;;;7.65;;
28772;SDS011;15925;51.222;5.678;2023-05-10T07:14:58;22.80;;;7.47;;
28772;SDS011;15925;51.222;5.678;2023-05-10T07:17:24;24.73;;;8.27;;
28772;SDS011;15925;51.222;5.678;2023-05-10T07:19:50;36.57;;;9.00;;
28772;SDS011;15925;51.222;5.678;2023-05-10T07:22:16;26.35;;;8.57;;
28772;SDS011;15925;51.222;5.678;2023-05-10T07:24:42;27.95;;;10.00;;
28772;SDS011;15925;51.222;5.678;2023-05-10T07:27:09;29.02;;;9.25;;
28772;SDS011;15925;51.222;5.678;2023-05-10T07:29:35;24.55;;;8.15;;
28772;SDS011;15925;51.222;5.678;2023-05-10T07:32:01;20.20;;;8.10;;
28772;SDS011;15925;51.222;5.678;2023-05-10T07:34:27;30.27;;;8.50;;
28772;SDS011;15925;51.222;5.678;2023-05-10T07:36:53;20.75;;;8.48;;
28772;SDS011;15925;51.222;5.678;2023-05-10T07:39:19;17.58;;;7.25;;
28772;SDS011;15925;51.222;5.678;2023-05-10T07:41:48;19.08;;;6.93;;
28772;SDS011;15925;51.222;5.678;2023-05-10T07:44:14;30.33;;;8.73;;
28772;SDS011;15925;51.222;5.678;2023-05-10T07:46:39;20.42;;;7.10;;
28772;SDS011;15925;51.222;5.678;2023-05-10T07:49:05;24.20;;;7.53;;
28772;SDS011;15925;51.222;5.678;2023-05-10T07:51:31;17.37;;;8.27;;
28772;SDS011;15925;51.222;5.678;2023-05-10T07:53:57;23.97;;;7.17;;
28772;SDS011;15925;51.222;5.678;2023-05-10T07:56:26;20.88;;;6.15;;
28772;SDS011;15925;51.222;5.678;2023-05-10T07:58:57;14.30;;;6.90;;
28772;SDS011;15925;51.222;5.678;2023-05-10T08:01:24;18.50;;;6.53;;
28772;SDS011;15925;51.222;5.678;2023-05-10T08:03:50;22.25;;;7.13;;
28772;SDS011;15925;51.222;5.678;2023-05-10T08:06:18;26.48;;;8.65;;
28772;SDS011;15925;51.222;5.678;2023-05-10T08:08:45;14.43;;;6.72;;
28772;SDS011;15925;51.222;5.678;2023-05-10T08:11:17;26.10;;;7.32;;
28772;SDS011;15925;51.222;5.678;2023-05-10T08:13:47;21.42;;;7.22;;
28772;SDS011;15925;51.222;5.678;2023-05-10T08:16:14;20.77;;;7.05;;
28772;SDS011;15925;51.222;5.678;2023-05-10T08:18:40;19.55;;;9.45;;
28772;SDS011;15925;51.222;5.678;2023-05-10T08:21:06;37.77;;;9.43;;
28772;SDS011;15925;51.222;5.678;2023-05-10T08:23:32;19.90;;;7.80;;
28772;SDS011;15925;51.222;5.678;2023-05-10T08:25:58;19.10;;;7.82;;
28772;SDS011;15925;51.222;5.678;2023-05-10T08:28:25;25.35;;;8.63;;
28772;SDS011;15925;51.222;5.678;2023-05-10T08:30:50;21.98;;;8.25;;
28772;SDS011;15925;51.222;5.678;2023-05-10T08:33:19;22.70;;;8.43;;
28772;SDS011;15925;51.222;5.678;2023-05-10T08:35:45;16.13;;;7.40;;
28772;SDS011;15925;51.222;5.678;2023-05-10T08:38:11;21.25;;;8.20;;
28772;SDS011;15925;51.222;5.678;2023-05-10T08:40:38;19.95;;;7.88;;
28772;SDS011;15925;51.222;5.678;2023-05-10T08:43:08;16.00;;;7.82;;
28772;SDS011;15925;51.222;5.678;2023-05-10T08:45:38;20.65;;;7.25;;
28772;SDS011;15925;51.222;5.678;2023-05-10T08:48:06;17.00;;;6.80;;
28772;SDS011;15925;51.222;5.678;2023-05-10T08:50:35;15.45;;;7.05;;
28772;SDS011;15925;51.222;5.678;2023-05-10T08:53:04;15.18;;;7.40;;
28772;SDS011;15925;51.222;5.678;2023-05-10T08:55:32;25.20;;;6.30;;
28772;SDS011;15925;51.222;5.678;2023-05-10T08:58:04;21.83;;;7.57;;
28772;SDS011;15925;51.222;5.678;2023-05-10T09:02:57;18.58;;;7.75;;
28772;SDS011;15925;51.222;5.678;2023-05-10T09:05:23;16.33;;;6.18;;
28772;SDS011;15925;51.222;5.678;2023-05-10T09:07:49;19.70;;;7.00;;
28772;SDS011;15925;51.222;5.678;2023-05-10T09:10:15;12.63;;;5.80;;
28772;SDS011;15925;51.222;5.678;2023-05-10T09:12:42;15.68;;;5.65;;
28772;SDS011;15925;51.222;5.678;2023-05-10T09:15:09;17.33;;;7.30;;
28772;SDS011;15925;51.222;5.678;2023-05-10T09:17:35;17.25;;;7.38;;
28772;SDS011;15925;51.222;5.678;2023-05-10T09:20:03;11.52;;;5.35;;
28772;SDS011;15925;51.222;5.678;2023-05-10T09:22:30;11.20;;;4.90;;
28772;SDS011;15925;51.222;5.678;2023-05-10T09:25:15;16.10;;;5.90;;
28772;SDS011;15925;51.222;5.678;2023-05-10T09:27:44;13.50;;;5.57;;
28772;SDS011;15925;51.222;5.678;2023-05-10T09:30:11;15.73;;;5.53;;
28772;SDS011;15925;51.222;5.678;2023-05-10T09:32:54;15.15;;;5.57;;
28772;SDS011;15925;51.222;5.678;2023-05-10T09:37:49;11.10;;;4.25;;
28772;SDS011;15925;51.222;5.678;2023-05-10T09:40:17;14.20;;;4.40;;
28772;SDS011;15925;51.222;5.678;2023-05-10T09:42:57;8.20;;;4.55;;
28772;SDS011;15925;51.222;5.678;2023-05-10T09:45:33;10.25;;;4.55;;
28772;SDS011;15925;51.222;5.678;2023-05-10T09:48:02;13.93;;;4.53;;
28772;SDS011;15925;51.222;5.678;2023-05-10T09:50:29;10.75;;;5.65;;
28772;SDS011;15925;51.222;5.678;2023-05-10T09:52:56;14.40;;;5.60;;
28772;SDS011;15925;51.222;5.678;2023-05-10T09:58:07;23.90;;;6.30;;
28772;SDS011;15925;51.222;5.678;2023-05-10T10:00:37;22.92;;;7.20;;
28772;SDS011;15925;51.222;5.678;2023-05-10T10:03:21;27.77;;;9.25;;
28772;SDS011;15925;51.222;5.678;2023-05-10T10:05:49;22.75;;;10.05;;
28772;SDS011;15925;51.222;5.678;2023-05-10T10:08:15;25.67;;;8.98;;
28772;SDS011;15925;51.222;5.678;2023-05-10T10:10:41;33.92;;;9.20;;
28772;SDS011;15925;51.222;5.678;2023-05-10T10:13:10;23.15;;;8.63;;
28772;SDS011;15925;51.222;5.678;2023-05-10T10:15:36;23.52;;;8.70;;
28772;SDS011;15925;51.222;5.678;2023-05-10T10:18:02;21.88;;;9.32;;
28772;SDS011;15925;51.222;5.678;2023-05-10T10:20:31;29.55;;;9.77;;
28772;SDS011;15925;51.222;5.678;2023-05-10T10:22:57;26.38;;;9.60;;
28772;SDS011;15925;51.222;5.678;2023-05-10T10:25:23;21.07;;;8.67;;
28772;SDS011;15925;51.222;5.678;2023-05-10T10:35:58;26.05;;;9.02;;
28772;SDS011;15925;51.222;5.678;2023-05-10T10:38:25;24.45;;;8.75;;
28772;SDS011;15925;51.222;5.678;2023-05-10T10:41:10;20.05;;;8.73;;
28772;SDS011;15925;51.222;5.678;2023-05-10T10:52:15;22.30;;;8.02;;
28772;SDS011;15925;51.222;5.678;2023-05-10T10:55:06;19.90;;;8.30;;
28772;SDS011;15925;51.222;5.678;2023-05-10T10:57:51;20.38;;;8.95;;
28772;SDS011;15925;51.222;5.678;2023-05-10T11:03:14;15.52;;;6.75;;
28772;SDS011;15925;51.222;5.678;2023-05-10T11:05:47;20.02;;;6.85;;
28772;SDS011;15925;51.222;5.678;2023-05-10T11:08:15;18.50;;;7.90;;
28772;SDS011;15925;51.222;5.678;2023-05-10T11:10:52;18.02;;;6.68;;
28772;SDS011;15925;51.222;5.678;2023-05-10T11:21:19;20.83;;;6.50;;
28772;SDS011;15925;51.222;5.678;2023-05-10T11:23:54;12.02;;;4.55;;
28772;SDS011;15925;51.222;5.678;2023-05-10T11:26:22;11.02;;;4.90;;
28772;SDS011;15925;51.222;5.678;2023-05-10T11:28:50;15.82;;;5.80;;
28772;SDS011;15925;51.222;5.678;2023-05-10T11:31:24;10.68;;;5.35;;
28772;SDS011;15925;51.222;5.678;2023-05-10T11:33:55;13.80;;;5.80;;
28772;SDS011;15925;51.222;5.678;2023-05-10T11:36:26;13.75;;;6.22;;
28772;SDS011;15925;51.222;5.678;2023-05-10T11:38:53;17.38;;;6.85;;
28772;SDS011;15925;51.222;5.678;2023-05-10T11:41:22;13.90;;;6.50;;
28772;SDS011;15925;51.222;5.678;2023-05-10T11:43:54;18.02;;;6.95;;
28772;SDS011;15925;51.222;5.678;2023-05-10T11:46:23;28.02;;;7.72;;
28772;SDS011;15925;51.222;5.678;2023-05-10T11:48:51;16.17;;;6.72;;
28772;SDS011;15925;51.222;5.678;2023-05-10T11:51:22;28.98;;;6.07;;
28772;SDS011;15925;51.222;5.678;2023-05-10T11:53:49;18.88;;;6.65;;
28772;SDS011;15925;51.222;5.678;2023-05-10T11:56:17;13.82;;;5.72;;
28772;SDS011;15925;51.222;5.678;2023-05-10T11:58:43;22.60;;;7.90;;
28772;SDS011;15925;51.222;5.678;2023-05-10T12:01:09;13.65;;;7.25;;
28772;SDS011;15925;51.222;5.678;2023-05-10T12:03:35;14.65;;;6.57;;
28772;SDS011;15925;51.222;5.678;2023-05-10T12:06:02;14.23;;;7.22;;
28772;SDS011;15925;51.222;5.678;2023-05-10T12:08:29;15.40;;;6.28;;
28772;SDS011;15925;51.222;5.678;2023-05-10T12:11:08;21.08;;;6.70;;
28772;SDS011;15925;51.222;5.678;2023-05-10T12:13:38;14.05;;;6.55;;
28772;SDS011;15925;51.222;5.678;2023-05-10T12:16:15;15.10;;;6.35;;
28772;SDS011;15925;51.222;5.678;2023-05-10T12:18:48;15.32;;;5.93;;
28772;SDS011;15925;51.222;5.678;2023-05-10T12:21:14;13.07;;;6.00;;
28772;SDS011;15925;51.222;5.678;2023-05-10T12:23:40;13.60;;;6.10;;
28772;SDS011;15925;51.222;5.678;2023-05-10T12:26:09;14.88;;;6.22;;
28772;SDS011;15925;51.222;5.678;2023-05-10T12:28:36;10.73;;;6.10;;
28772;SDS011;15925;51.222;5.678;2023-05-10T12:31:02;13.52;;;5.72;;
28772;SDS011;15925;51.222;5.678;2023-05-10T12:33:42;13.07;;;6.00;;
28772;SDS011;15925;51.222;5.678;2023-05-10T12:36:09;11.75;;;5.47;;
28772;SDS011;15925;51.222;5.678;2023-05-10T12:38:37;18.00;;;6.13;;
28772;SDS011;15925;51.222;5.678;2023-05-10T12:41:08;13.23;;;5.55;;
28772;SDS011;15925;51.222;5.678;2023-05-10T12:43:35;12.02;;;5.57;;
28772;SDS011;15925;51.222;5.678;2023-05-10T12:46:08;17.52;;;6.97;;
28772;SDS011;15925;51.222;5.678;2023-05-10T12:48:35;14.10;;;5.20;;
28772;SDS011;15925;51.222;5.678;2023-05-10T12:51:01;14.18;;;6.32;;
28772;SDS011;15925;51.222;5.678;2023-05-10T12:53:28;19.35;;;4.80;;
28772;SDS011;15925;51.222;5.678;2023-05-10T12:55:54;17.85;;;5.20;;
28772;SDS011;15925;51.222;5.678;2023-05-10T12:58:20;17.33;;;6.55;;
28772;SDS011;15925;51.222;5.678;2023-05-10T13:00:45;19.17;;;4.73;;
28772;SDS011;15925;51.222;5.678;2023-05-10T13:03:11;10.80;;;5.07;;
28772;SDS011;15925;51.222;5.678;2023-05-10T13:05:37;13.25;;;5.68;;
28772;SDS011;15925;51.222;5.678;2023-05-10T13:08:03;13.10;;;5.13;;
28772;SDS011;15925;51.222;5.678;2023-05-10T13:10:30;18.10;;;4.20;;
28772;SDS011;15925;51.222;5.678;2023-05-10T13:12:56;11.48;;;5.10;;
28772;SDS011;15925;51.222;5.678;2023-05-10T13:15:25;14.93;;;4.88;;
28772;SDS011;15925;51.222;5.678;2023-05-10T13:17:52;13.45;;;4.82;;
28772;SDS011;15925;51.222;5.678;2023-05-10T13:20:18;11.50;;;4.60;;
28772;SDS011;15925;51.222;5.678;2023-05-10T13:22:44;13.60;;;4.60;;
28772;SDS011;15925;51.222;5.678;2023-05-10T13:25:10;18.52;;;4.68;;
28772;SDS011;15925;51.222;5.678;2023-05-10T13:27:37;13.85;;;3.58;;
28772;SDS011;15925;51.222;5.678;2023-05-10T13:30:06;9.80;;;4.32;;
28772;SDS011;15925;51.222;5.678;2023-05-10T13:32:33;20.65;;;3.95;;
28772;SDS011;15925;51.222;5.678;2023-05-10T13:34:59;7.13;;;3.50;;
28772;SDS011;15925;51.222;5.678;2023-05-10T13:37:25;9.50;;;4.28;;
28772;SDS011;15925;51.222;5.678;2023-05-10T13:39:51;7.10;;;3.23;;
28772;SDS011;15925;51.222;5.678;2023-05-10T13:42:17;8.23;;;3.92;;
28772;SDS011;15925;51.222;5.678;2023-05-10T13:44:43;7.80;;;3.30;;
28772;SDS011;15925;51.222;5.678;2023-05-10T13:47:09;9.57;;;4.38;;
28772;SDS011;15925;51.222;5.678;2023-05-10T13:49:35;11.55;;;3.40;;
28772;SDS011;15925;51.222;5.678;2023-05-10T13:52:03;5.78;;;3.60;;
28772;SDS011;15925;51.222;5.678;2023-05-10T13:54:34;10.00;;;4.38;;
28772;SDS011;15925;51.222;5.678;2023-05-10T13:57:03;10.95;;;3.10;;
28772;SDS011;15925;51.222;5.678;2023-05-10T13:59:30;11.23;;;4.20;;
28772;SDS011;15925;51.222;5.678;2023-05-10T14:01:57;8.27;;;3.47;;
28772;SDS011;15925;51.222;5.678;2023-05-10T14:06:49;6.18;;;2.90;;
28772;SDS011;15925;51.222;5.678;2023-05-10T14:09:15;9.23;;;3.30;;
28772;SDS011;15925;51.222;5.678;2023-05-10T14:11:41;6.07;;;2.63;;
28772;SDS011;15925;51.222;5.678;2023-05-10T14:14:11;12.38;;;2.58;;
28772;SDS011;15925;51.222;5.678;2023-05-10T14:16:37;8.07;;;3.72;;
28772;SDS011;15925;51.222;5.678;2023-05-10T14:19:07;16.10;;;3.08;;
28772;SDS011;15925;51.222;5.678;2023-05-10T14:21:33;16.88;;;3.97;;
28772;SDS011;15925;51.222;5.678;2023-05-10T14:23:59;11.97;;;3.53;;
28772;SDS011;15925;51.222;5.678;2023-05-10T14:26:25;9.02;;;3.30;;
28772;SDS011;15925;51.222;5.678;2023-05-10T14:28:51;10.65;;;2.80;;
28772;SDS011;15925;51.222;5.678;2023-05-10T14:31:17;11.45;;;3.38;;
28772;SDS011;15925;51.222;5.678;2023-05-10T14:33:45;8.60;;;3.20;;
28772;SDS011;15925;51.222;5.678;2023-05-10T14:36:11;6.90;;;3.10;;
28772;SDS011;15925;51.222;5.678;2023-05-10T14:38:38;4.57;;;2.30;;
28772;SDS011;15925;51.222;5.678;2023-05-10T14:41:05;6.05;;;2.90;;
28772;SDS011;15925;51.222;5.678;2023-05-10T14:43:31;5.68;;;3.13;;
28772;SDS011;15925;51.222;5.678;2023-05-10T14:45:56;5.33;;;2.70;;
28772;SDS011;15925;51.222;5.678;2023-05-10T14:48:22;7.55;;;3.45;;
28772;SDS011;15925;51.222;5.678;2023-05-10T14:50:48;7.27;;;2.80;;
28772;SDS011;15925;51.222;5.678;2023-05-10T14:53:15;7.30;;;2.67;;
28772;SDS011;15925;51.222;5.678;2023-05-10T14:55:40;5.38;;;2.30;;
28772;SDS011;15925;51.222;5.678;2023-05-10T14:58:06;5.33;;;2.90;;
28772;SDS011;15925;51.222;5.678;2023-05-10T15:00:32;4.93;;;2.33;;
28772;SDS011;15925;51.222;5.678;2023-05-10T15:02:58;3.80;;;2.13;;
28772;SDS011;15925;51.222;5.678;2023-05-10T15:05:24;4.33;;;2.00;;
28772;SDS011;15925;51.222;5.678;2023-05-10T15:07:50;5.20;;;2.22;;
28772;SDS011;15925;51.222;5.678;2023-05-10T15:10:15;10.83;;;2.50;;
28772;SDS011;15925;51.222;5.678;2023-05-10T15:12:41;3.30;;;2.15;;
28772;SDS011;15925;51.222;5.678;2023-05-10T15:15:07;5.90;;;2.42;;
28772;SDS011;15925;51.222;5.678;2023-05-10T15:17:33;6.13;;;2.63;;
28772;SDS011;15925;51.222;5.678;2023-05-10T15:19:59;9.77;;;2.90;;
28772;SDS011;15925;51.222;5.678;2023-05-10T15:22:28;10.20;;;2.13;;
28772;SDS011;15925;51.222;5.678;2023-05-10T15:24:54;3.53;;;2.38;;
28772;SDS011;15925;51.222;5.678;2023-05-10T15:27:19;4.38;;;2.28;;
28772;SDS011;15925;51.222;5.678;2023-05-10T15:29:45;4.80;;;2.53;;
28772;SDS011;15925;51.222;5.678;2023-05-10T15:32:11;4.47;;;2.08;;
28772;SDS011;15925;51.222;5.678;2023-05-10T15:34:37;4.87;;;1.77;;
28772;SDS011;15925;51.222;5.678;2023-05-10T15:37:03;4.27;;;2.30;;
28772;SDS011;15925;51.222;5.678;2023-05-10T15:39:29;7.22;;;2.22;;
28772;SDS011;15925;51.222;5.678;2023-05-10T15:41:54;2.07;;;1.37;;
28772;SDS011;15925;51.222;5.678;2023-05-10T15:44:21;3.83;;;1.67;;
28772;SDS011;15925;51.222;5.678;2023-05-10T15:46:47;4.25;;;1.83;;
28772;SDS011;15925;51.222;5.678;2023-05-10T15:49:12;4.03;;;2.27;;
28772;SDS011;15925;51.222;5.678;2023-05-10T15:51:38;2.30;;;1.23;;
28772;SDS011;15925;51.222;5.678;2023-05-10T15:54:04;4.68;;;1.92;;
28772;SDS011;15925;51.222;5.678;2023-05-10T15:56:31;9.13;;;2.70;;